Delray Beach, FL (33445)

10:22 PM EDT on August 27, 2016 (GMT -0400)
Bexley Park | | Change Station

Elev 15 ft 26.48 °N, 80.12 °W | Updated 9 minutes ago

Clear
Clear
82.4 °F
Feels Like 88 °F
N
1.0
Wind Variable Wind from East
Gusts 4.0 mph

Today
High -- | Low -- °F
--% Chance of Precip.
Yesterday
High -- | Low -- °F
Precip. -- in
Pressure 29.92 in
Visibility 10.0 miles
Clouds Clear
Heat Index 88 °F
Dew Point 73 °F
Humidity 73%
Rainfall 0.17 in
Snow Depth Not available.
6:58 AM 7:44 PM
Waning Crescent, 19% visible
METAR KPMP 280153Z AUTO 06010KT 10SM CLR 28/26 A2991 RMK AO2 SLP130 T02830256
Pressure 29.92 in
Visibility 10.0 miles
Clouds Clear
Heat Index 88 °F
Dew Point 73 °F
Humidity 73%
Rainfall 0.17 in
Snow Depth Not available.
6:58 AM 7:44 PM
Waning Crescent, 19% visible
METAR KPMP 280153Z AUTO 06010KT 10SM CLR 28/26 A2991 RMK AO2 SLP130 T02830256

10-Day Weather Forecast

Almanac

Astronomy

Aug. 27, 2016 Rise Set
Actual Time
Civil Twilight
Nautical Twilight
Astronomical Twilight
Moon
Length of Visible Light
Length of Day
Tomorrow will be .
, % of the Moon is Illuminated

Today's Extremes

State Highs State Lows

Community

WunderPhotos

Upload Photos

1,935,496 photos uploaded!

WunderBlog® & News

Nearby

Air Quality

  Air Quality AQ Index Pollutant
Not available.

Snow Depth

Station Depth Elevation

Earthquake Activity

City Distance Mag. Time & Date
Minimum magnitude displayed is 2.5.

Coastal Water Temperatures

Place Temperature

Stations

Nearby Weather Stations

Station Location Temp. Windchill Dew Point Humidity Wind Precip. Elev Updated Type
                   

Watches & Warnings

There are currently no watches in effect.